Accueil
METAR-TAF:

METAR-TAF

Aéroports :

Aérodrome de Maré - La Roche

Maré, Nouvelle-Calédonie

latitude: 21-28-53S, longitude: 168-02-15E, altitude: 42 m

METAR: absent

Heure: 15:58 (04:58 UTC)

Prévision

Le bulletin a été fait il y a 10 heures et 0 minutes, à 18:58 UTC
Prévision valable du 15 à 18 UTC au 16 à 18 UTC
Vent 6 kt de est
Visibilité 10 km ou plus
Nuages fragmentés à une hauteur de 1400 ft
Temporairement
du 15 à 18 UTC au 15 à 24 UTC
Visibilité: 3500 m
Nuages fragmentés à une hauteur de 500 ft
Quelques nuages à une hauteur de 1800 ft, Cumulonimbus.
averses de pluie
Evoluant progressivement
du 15 à 23 UTC au 16 à 01 UTC
Vent 16 kt de est avec des rafales jusqu'à 26 kt
Evoluant progressivement
du 16 à 07 UTC au 16 à 10 UTC
Vent 6 kt de est

TAF: NWWR 151858Z 1518/1618 10006KT 9999 BKN014 TEMPO 1518/1524 3500 SHRA BKN005 FEW018CB BECMG 1523/1601 10016G26KT BECMG 1607/1610 10006KT

Observations et prévisions météorologiques de plus de 4000 aéroports (messages METAR et TAF).

Les stations disponibles sont représentées par des disques jaunes et rouges sur la carte.

Passer la souris dessus pour voir le nom de la station.

Cliquer dessus pour voir les observations et prévisions météorologiques.

Pour changer de carte: cliquez sur les boutons verts avec une croix noire pour zoomer, sur le bouton vert avec un tiret pour effectuer un zoom arrière, ou sur les flèches vertes pour les cartes adjacentes.


METAR-TAF: